createdAt,value
2018-03-04T00:00:59.963Z,96190.84
2018-03-04T00:02:05.422Z,96181.69
2018-03-04T00:03:11.096Z,96184.09
2018-03-04T00:04:16.506Z,96187.17
2018-03-04T00:05:21.865Z,96186.50
2018-03-04T00:06:27.232Z,96190.35
2018-03-04T00:07:32.847Z,96192.39
2018-03-04T00:08:38.161Z,96186.38
2018-03-04T00:09:43.812Z,96183.32
2018-03-04T00:10:49.198Z,96185.42
2018-03-04T00:11:54.543Z,96184.28
2018-03-04T00:12:59.931Z,96185.94
2018-03-04T00:14:05.224Z,96178.67
2018-03-04T00:15:10.614Z,96181.78
2018-03-04T00:16:16.209Z,96180.52
2018-03-04T00:17:21.762Z,96184.03
2018-03-04T00:18:27.106Z,96183.50
2018-03-04T00:19:32.552Z,96184.03
2018-03-04T00:20:37.911Z,96186.90
2018-03-04T00:21:43.252Z,96183.23
2018-03-04T00:22:49.050Z,96182.15
2018-03-04T00:23:54.959Z,96179.92
2018-03-04T00:25:00.502Z,96180.91
2018-03-04T00:26:05.993Z,96182.36
2018-03-04T00:27:11.421Z,96182.70
2018-03-04T00:28:16.965Z,96186.06
2018-03-04T00:29:22.804Z,96187.14
2018-03-04T00:30:28.232Z,96186.12
2018-03-04T00:31:33.664Z,96188.38
2018-03-04T00:32:39.141Z,96191.59
2018-03-04T00:33:44.649Z,96193.16
2018-03-04T00:34:50.247Z,96195.96
2018-03-04T00:35:56.967Z,96199.63
2018-03-04T00:37:02.382Z,96202.09
2018-03-04T00:38:08.302Z,96200.80
2018-03-04T00:39:13.731Z,96195.56
2018-03-04T00:40:19.150Z,96201.17
2018-03-04T00:41:24.591Z,96199.02
2018-03-04T00:42:30.609Z,96202.03
2018-03-04T00:43:36.182Z,96203.88
2018-03-04T00:44:41.838Z,96200.06
2018-03-04T00:45:47.312Z,96195.55
2018-03-04T00:46:52.955Z,96200.48
2018-03-04T00:47:58.425Z,96201.53
2018-03-04T00:49:04.101Z,96202.80
2018-03-04T00:50:09.765Z,96206.16
2018-03-04T00:51:15.429Z,96203.42
2018-03-04T00:52:20.838Z,96203.39
2018-03-04T00:53:26.417Z,96207.73
2018-03-04T00:54:31.822Z,96207.37
2018-03-04T00:55:37.639Z,96206.47
2018-03-04T00:56:43.175Z,96208.11
2018-03-04T00:57:48.831Z,96212.64
2018-03-04T00:58:54.367Z,96208.45
2018-03-04T00:59:59.739Z,96208.98
2018-03-04T01:01:05.918Z,96208.94
2018-03-04T01:02:11.843Z,96206.84
2018-03-04T01:03:17.328Z,96199.20
2018-03-04T01:04:22.855Z,96198.77
2018-03-04T01:05:28.433Z,96200.09
2018-03-04T01:06:34.053Z,96199.91
2018-03-04T01:07:39.635Z,96195.25
2018-03-04T01:08:45.386Z,96200.65
2018-03-04T01:09:51.030Z,96195.19
2018-03-04T01:10:56.695Z,96199.66
2018-03-04T01:12:02.356Z,96200.65
2018-03-04T01:13:08.107Z,96200.69
2018-03-04T01:14:13.909Z,96197.78
2018-03-04T01:15:19.855Z,96201.83
2018-03-04T01:16:25.619Z,96199.78
2018-03-04T01:17:31.186Z,96190.08
2018-03-04T01:18:36.863Z,96195.04
2018-03-04T01:19:42.568Z,96193.00
2018-03-04T01:20:48.215Z,96195.91
2018-03-04T01:21:54.128Z,96192.94
2018-03-04T01:22:59.910Z,96190.97
2018-03-04T01:24:05.557Z,96191.73
2018-03-04T01:25:11.129Z,96190.23
2018-03-04T01:26:16.683Z,96195.10
2018-03-04T01:27:22.156Z,96194.70
2018-03-04T01:28:28.427Z,96196.45
2018-03-04T01:29:34.079Z,96192.94
2018-03-04T01:30:39.794Z,96194.86
2018-03-04T01:31:45.603Z,96202.03
2018-03-04T01:32:51.315Z,96197.13
2018-03-04T01:33:56.857Z,96195.72
2018-03-04T01:35:02.901Z,96198.59
2018-03-04T01:36:08.754Z,96188.22
2018-03-04T01:37:14.488Z,96197.78
2018-03-04T01:38:20.108Z,96194.30
2018-03-04T01:39:25.779Z,96196.92
2018-03-04T01:40:31.512Z,96194.14
2018-03-04T01:41:37.462Z,96202.52
2018-03-04T01:42:43.301Z,96198.36
2018-03-04T01:43:49.032Z,96194.27
2018-03-04T01:44:54.766Z,96197.87
2018-03-04T01:46:00.482Z,96195.55
2018-03-04T01:47:06.315Z,96193.55
2018-03-04T01:48:12.255Z,96199.61
2018-03-04T01:49:18.045Z,96198.41
2018-03-04T01:50:23.717Z,96191.33
2018-03-04T01:51:33.242Z,96188.80
2018-03-04T01:52:38.917Z,96195.28
2018-03-04T01:53:44.560Z,96193.70
2018-03-04T01:54:50.636Z,96198.23
2018-03-04T01:55:56.145Z,96190.30
2018-03-04T01:57:02.129Z,96191.42
2018-03-04T01:58:07.730Z,96190.06
2018-03-04T01:59:13.189Z,96193.17
2018-03-04T02:00:18.954Z,96197.55
2018-03-04T02:01:25.462Z,96194.50
2018-03-04T02:02:31.439Z,96196.66
2018-03-04T02:03:37.247Z,96200.05
2018-03-04T02:04:42.994Z,96197.48
2018-03-04T02:05:48.710Z,96192.91
2018-03-04T02:06:54.590Z,96191.73
2018-03-04T02:08:00.625Z,96188.31
2018-03-04T02:09:06.522Z,96192.34
2018-03-04T02:10:12.441Z,96188.03
2018-03-04T02:11:19.010Z,96184.86
2018-03-04T02:12:25.150Z,96189.27
2018-03-04T02:13:30.922Z,96187.23
2018-03-04T02:14:37.005Z,96183.84
2018-03-04T02:15:42.878Z,96182.27
2018-03-04T02:16:48.583Z,96186.80
2018-03-04T02:17:54.455Z,96176.94
2018-03-04T02:19:00.068Z,96182.73
2018-03-04T02:20:05.767Z,96182.02
2018-03-04T02:21:12.086Z,96186.39
2018-03-04T02:22:18.101Z,96184.30
2018-03-04T02:23:24.081Z,96190.03
2018-03-04T02:24:29.831Z,96193.64
2018-03-04T02:25:35.533Z,96189.14
2018-03-04T02:26:41.507Z,96190.34
2018-03-04T02:27:47.395Z,96182.67
2018-03-04T02:28:53.092Z,96185.44
2018-03-04T02:29:58.533Z,96179.83
2018-03-04T02:31:04.646Z,96182.27
2018-03-04T02:32:10.295Z,96183.41
2018-03-04T02:33:16.460Z,96180.02
2018-03-04T02:34:22.176Z,96183.69
2018-03-04T02:35:27.798Z,96178.76
2018-03-04T02:36:33.885Z,96176.14
2018-03-04T02:37:39.741Z,96175.83
2018-03-04T02:38:45.667Z,96166.40
2018-03-04T02:39:51.629Z,96163.72
2018-03-04T02:40:57.568Z,96165.75
2018-03-04T02:42:03.497Z,96163.72
2018-03-04T02:43:09.157Z,96168.50
2018-03-04T02:44:15.229Z,96163.66
2018-03-04T02:45:20.561Z,96167.64
2018-03-04T02:46:26.044Z,96164.77
2018-03-04T02:47:32.256Z,96178.77
2018-03-04T02:48:38.263Z,96176.27
2018-03-04T02:49:43.945Z,96166.34
2018-03-04T02:50:49.764Z,96176.27
2018-03-04T02:51:55.212Z,96177.09
2018-03-04T02:53:00.919Z,96177.00
2018-03-04T02:54:07.147Z,96181.20
2018-03-04T02:55:12.936Z,96168.00
2018-03-04T02:56:18.479Z,96175.74
2018-03-04T02:57:24.222Z,96180.48
2018-03-04T02:58:30.109Z,96167.33
2018-03-04T02:59:35.716Z,96170.00
2018-03-04T03:00:41.624Z,96155.83
2018-03-04T03:01:46.843Z,96160.11
2018-03-04T03:02:52.669Z,96162.14
2018-03-04T03:03:58.580Z,96163.91
2018-03-04T03:05:04.233Z,96165.91
2018-03-04T03:06:10.164Z,96164.83
2018-03-04T03:07:16.096Z,96168.68
2018-03-04T03:08:21.709Z,96172.50
2018-03-04T03:09:26.953Z,96179.16
2018-03-04T03:10:32.896Z,96173.77
2018-03-04T03:11:38.604Z,96171.48
2018-03-04T03:12:44.414Z,96168.53
2018-03-04T03:13:50.451Z,96163.97
2018-03-04T03:14:56.055Z,96162.80
2018-03-04T03:16:01.977Z,96160.36
2018-03-04T03:17:09.376Z,96158.45
2018-03-04T03:18:14.938Z,96159.28
2018-03-04T03:19:20.315Z,96166.68
2018-03-04T03:20:25.869Z,96166.00
2018-03-04T03:21:31.357Z,96163.16
2018-03-04T03:22:36.714Z,96167.33
2018-03-04T03:23:42.902Z,96157.83
2018-03-04T03:24:48.471Z,96163.94
2018-03-04T03:25:53.871Z,96159.44
2018-03-04T03:26:59.914Z,96160.23
2018-03-04T03:28:05.450Z,96164.03
2018-03-04T03:29:11.363Z,96155.34
2018-03-04T03:30:17.507Z,96148.27
2018-03-04T03:31:23.362Z,96154.44
2018-03-04T03:32:29.380Z,96149.81
2018-03-04T03:33:34.846Z,96145.28
2018-03-04T03:34:40.430Z,96148.80
2018-03-04T03:35:46.228Z,96145.31
2018-03-04T03:36:51.987Z,96153.14
2018-03-04T03:37:58.033Z,96146.05
2018-03-04T03:39:03.737Z,96144.42
2018-03-04T03:40:09.227Z,96139.30
2018-03-04T03:41:14.971Z,96135.36
2018-03-04T03:42:20.825Z,96138.31
2018-03-04T03:43:26.244Z,96129.25
2018-03-04T03:44:31.688Z,96141.98
2018-03-04T03:45:37.500Z,96145.53
2018-03-04T03:46:42.698Z,96136.53
2018-03-04T03:47:48.259Z,96138.83
2018-03-04T03:48:54.276Z,96137.73
2018-03-04T03:49:59.674Z,96135.97
2018-03-04T03:51:04.726Z,96132.33
2018-03-04T03:52:10.249Z,96129.89
2018-03-04T03:53:15.677Z,96132.36
2018-03-04T03:54:21.045Z,96124.07
2018-03-04T03:55:26.318Z,96126.77
2018-03-04T03:56:31.793Z,96128.01
2018-03-04T03:57:36.986Z,96120.20
2018-03-04T03:58:43.092Z,96125.48
2018-03-04T03:59:48.454Z,96120.05
2018-03-04T04:00:54.782Z,96122.39
2018-03-04T04:02:00.132Z,96131.92
2018-03-04T04:03:05.323Z,96128.34
2018-03-04T04:04:11.007Z,96137.25
2018-03-04T04:05:16.915Z,96133.05
2018-03-04T04:06:22.349Z,96123.09
2018-03-04T04:07:27.481Z,96119.80
2018-03-04T04:08:32.579Z,96125.59
2018-03-04T04:09:37.750Z,96115.22
2018-03-04T04:10:42.935Z,96111.42
2018-03-04T04:11:48.465Z,96118.70
2018-03-04T04:12:53.666Z,96120.36
2018-03-04T04:13:58.778Z,96115.77
2018-03-04T04:15:03.964Z,96109.88
2018-03-04T04:16:08.892Z,96111.47
2018-03-04T04:17:13.802Z,96109.27
2018-03-04T04:18:19.333Z,96105.77
2018-03-04T04:19:24.396Z,96102.23
2018-03-04T04:20:29.373Z,96105.41
2018-03-04T04:21:34.450Z,96105.23
2018-03-04T04:22:39.588Z,96103.54
2018-03-04T04:23:44.574Z,96111.70
2018-03-04T04:24:50.074Z,96112.95
2018-03-04T04:25:55.061Z,96107.70
2018-03-04T04:27:00.818Z,96100.57
2018-03-04T04:28:05.997Z,96108.28
2018-03-04T04:29:11.317Z,96105.67
2018-03-04T04:30:16.702Z,96102.38
2018-03-04T04:31:21.971Z,96102.70
2018-03-04T04:32:27.221Z,96105.20
2018-03-04T04:33:32.293Z,96099.57
2018-03-04T04:34:38.019Z,96097.50
2018-03-04T04:35:43.458Z,96097.00
2018-03-04T04:36:49.649Z,96100.00
2018-03-04T04:37:55.752Z,96092.47
2018-03-04T04:39:01.455Z,96093.33
2018-03-04T04:40:06.843Z,96086.66
2018-03-04T04:41:12.248Z,96077.66
2018-03-04T04:42:17.740Z,96087.06
2018-03-04T04:43:23.836Z,96084.86
2018-03-04T04:44:29.035Z,96076.02
2018-03-04T04:45:34.560Z,96085.93
2018-03-04T04:46:40.759Z,96082.53
2018-03-04T04:47:45.988Z,96079.12
2018-03-04T04:48:51.034Z,96090.66
2018-03-04T04:49:56.496Z,96084.50
2018-03-04T04:51:01.802Z,96090.80
2018-03-04T04:52:07.720Z,96089.97
2018-03-04T04:53:12.559Z,96095.53
2018-03-04T04:54:17.681Z,96089.73
2018-03-04T04:55:22.823Z,96085.06
2018-03-04T04:56:29.019Z,96080.83
2018-03-04T04:57:33.936Z,96090.73
2018-03-04T04:58:38.868Z,96087.70
2018-03-04T04:59:43.966Z,96098.60
2018-03-04T05:00:48.932Z,96094.83
2018-03-04T05:01:54.081Z,96100.70
2018-03-04T05:03:00.014Z,96096.20
2018-03-04T05:04:04.816Z,96091.27
2018-03-04T05:05:09.781Z,96093.44
2018-03-04T05:06:14.608Z,96088.27
2018-03-04T05:07:19.743Z,96097.09
2018-03-04T05:08:25.070Z,96092.56
2018-03-04T05:09:30.849Z,96099.50
2018-03-04T05:10:36.318Z,96094.63
2018-03-04T05:11:41.380Z,96100.94
2018-03-04T05:12:46.715Z,96095.80
2018-03-04T05:13:51.798Z,96098.97
2018-03-04T05:14:57.263Z,96106.00
2018-03-04T05:16:02.989Z,96105.43
2018-03-04T05:17:08.296Z,96105.67
2018-03-04T05:18:13.995Z,96103.47
2018-03-04T05:19:19.452Z,96103.12
2018-03-04T05:20:24.553Z,96105.97
2018-03-04T05:21:29.880Z,96109.13
2018-03-04T05:22:35.383Z,96115.73
2018-03-04T05:23:40.645Z,96107.33
2018-03-04T05:24:45.818Z,96103.93
2018-03-04T05:25:51.009Z,96111.20
2018-03-04T05:26:57.383Z,96109.03
2018-03-04T05:28:02.376Z,96109.23
2018-03-04T05:29:07.727Z,96111.70
2018-03-04T05:30:12.733Z,96104.03
2018-03-04T05:31:18.070Z,96102.33
2018-03-04T05:32:22.992Z,96101.46
2018-03-04T05:33:28.077Z,96101.49
2018-03-04T05:34:33.449Z,96099.13
2018-03-04T05:35:39.038Z,96098.26
2018-03-04T05:36:44.219Z,96103.63
2018-03-04T05:37:49.454Z,96110.47
2018-03-04T05:38:54.763Z,96105.50
2018-03-04T05:40:00.034Z,96103.06
2018-03-04T05:41:05.371Z,96108.63
2018-03-04T05:42:10.763Z,96109.06
2018-03-04T05:43:15.755Z,96108.53
2018-03-04T05:44:20.860Z,96103.37
2018-03-04T05:45:26.054Z,96104.07
2018-03-04T05:46:31.135Z,96099.66
2018-03-04T05:47:36.137Z,96105.47
2018-03-04T05:48:41.820Z,96106.80
2018-03-04T05:49:47.023Z,96119.34
2018-03-04T05:50:52.359Z,96118.57
2018-03-04T05:51:57.795Z,96123.67
2018-03-04T05:53:03.105Z,96122.83
2018-03-04T05:54:08.417Z,96130.77
2018-03-04T05:55:14.246Z,96125.49
2018-03-04T05:56:19.381Z,96122.89
2018-03-04T05:57:25.121Z,96127.83
2018-03-04T05:58:30.657Z,96122.99
2018-03-04T05:59:35.921Z,96122.99
2018-03-04T06:00:41.243Z,96123.59
2018-03-04T06:01:46.836Z,96120.72
2018-03-04T06:02:53.395Z,96119.80
2018-03-04T06:03:58.618Z,96116.92
2018-03-04T06:05:04.857Z,96111.59
2018-03-04T06:06:11.131Z,96120.69
2018-03-04T06:07:16.628Z,96113.99
2018-03-04T06:08:22.327Z,96115.40
2018-03-04T06:09:28.223Z,96120.09
2018-03-04T06:10:34.095Z,96123.70
2018-03-04T06:11:39.861Z,96129.44
2018-03-04T06:12:45.340Z,96130.70
2018-03-04T06:13:51.079Z,96129.93
2018-03-04T06:14:57.540Z,96125.77
2018-03-04T06:16:03.605Z,96125.36
2018-03-04T06:22:35.665Z,96125.36
2018-03-04T06:23:41.348Z,96135.30
2018-03-04T06:24:46.966Z,96129.06
2018-03-04T06:25:52.638Z,96136.27
2018-03-04T06:26:58.262Z,96137.40
2018-03-04T06:28:04.160Z,96136.13
2018-03-04T06:29:10.322Z,96136.44
2018-03-04T06:30:15.980Z,96126.20
2018-03-04T06:31:21.739Z,96135.33
2018-03-04T06:32:27.559Z,96126.97
2018-03-04T06:33:33.356Z,96122.44
2018-03-04T06:34:39.005Z,96127.40
2018-03-04T06:35:45.348Z,96127.27
2018-03-04T06:36:51.082Z,96122.13
2018-03-04T06:37:56.874Z,96122.80
2018-03-04T06:39:02.754Z,96125.67
2018-03-04T06:40:09.127Z,96125.64
2018-03-04T06:41:15.054Z,96124.00
2018-03-04T06:42:21.051Z,96124.23
2018-03-04T06:43:26.769Z,96128.77
2018-03-04T06:44:32.565Z,96118.14
2018-03-04T06:45:38.412Z,96128.47
2018-03-04T06:46:44.437Z,96124.61
2018-03-04T06:47:50.194Z,96126.75
2018-03-04T06:48:56.045Z,96128.02
2018-03-04T06:50:01.980Z,96129.81
2018-03-04T06:51:08.850Z,96127.69
2018-03-04T06:52:14.439Z,96137.52
2018-03-04T06:53:20.317Z,96131.62
2018-03-04T06:54:27.062Z,96129.09
2018-03-04T06:55:33.125Z,96138.33
2018-03-04T06:56:38.801Z,96130.89
2018-03-04T06:57:44.362Z,96131.36
2018-03-04T06:58:50.039Z,96124.62
2018-03-04T06:59:55.779Z,96126.19
2018-03-04T07:01:01.868Z,96130.52
2018-03-04T07:02:08.077Z,96129.36
2018-03-04T07:03:13.863Z,96124.22
2018-03-04T07:04:20.507Z,96129.16
2018-03-04T07:05:26.260Z,96119.08
2018-03-04T07:06:32.139Z,96123.55
2018-03-04T07:07:37.776Z,96130.76
2018-03-04T07:08:43.859Z,96136.03
2018-03-04T07:09:49.641Z,96137.73
2018-03-04T07:10:55.267Z,96143.70
2018-03-04T07:12:00.971Z,96148.27
2018-03-04T07:13:06.558Z,96145.91
2018-03-04T07:14:12.547Z,96143.73
2018-03-04T07:15:18.915Z,96146.17
2018-03-04T07:16:24.985Z,96147.50
2018-03-04T07:17:30.565Z,96148.04
2018-03-04T07:18:36.210Z,96151.13
2018-03-04T07:19:42.038Z,96147.83
2018-03-04T07:20:48.458Z,96151.34
2018-03-04T07:21:53.940Z,96147.50
2018-03-04T07:22:59.760Z,96147.23
2018-03-04T07:24:05.728Z,96141.36
2018-03-04T07:25:11.400Z,96146.13
2018-03-04T07:26:17.097Z,96144.63
2018-03-04T07:27:23.125Z,96147.41
2018-03-04T07:28:28.549Z,96145.33
2018-03-04T07:29:34.289Z,96147.23
2018-03-04T07:30:39.744Z,96150.84
2018-03-04T07:31:45.175Z,96150.21
2018-03-04T07:32:50.523Z,96151.98
2018-03-04T07:33:56.359Z,96150.77
2018-03-04T07:35:01.734Z,96148.34
2018-03-04T07:36:07.555Z,96140.41
2018-03-04T07:37:13.207Z,96138.20
2018-03-04T07:38:18.755Z,96142.44
2018-03-04T07:39:24.266Z,96135.30
2018-03-04T07:40:30.141Z,96127.42
2018-03-04T07:41:35.645Z,96130.55
2018-03-04T07:42:41.326Z,96132.55
2018-03-04T07:43:46.780Z,96134.95
2018-03-04T07:44:52.249Z,96134.49
2018-03-04T07:45:57.912Z,96135.13
2018-03-04T07:47:03.485Z,96139.82
2018-03-04T07:48:08.839Z,96127.91
2018-03-04T07:49:15.064Z,96132.05
2018-03-04T07:50:20.365Z,96132.88
2018-03-04T07:51:25.797Z,96134.22
2018-03-04T07:52:31.329Z,96133.44
2018-03-04T07:53:36.568Z,96127.47
2018-03-04T07:54:42.073Z,96132.52
2018-03-04T07:55:47.454Z,96135.39
2018-03-04T07:56:52.779Z,96137.32
2018-03-04T07:57:58.262Z,96132.89
2018-03-04T07:59:03.785Z,96131.93
2018-03-04T08:00:09.157Z,96125.72
2018-03-04T08:01:14.559Z,96127.07
2018-03-04T08:02:20.052Z,96125.99
2018-03-04T08:03:25.278Z,96126.72
2018-03-04T08:04:30.533Z,96131.23
2018-03-04T08:05:36.095Z,96133.77
2018-03-04T08:06:41.267Z,96138.68
2018-03-04T08:07:46.506Z,96129.06
2018-03-04T08:08:51.768Z,96132.02
2018-03-04T08:09:57.079Z,96129.81
2018-03-04T08:11:02.530Z,96131.52
2018-03-04T08:12:08.364Z,96127.03
2018-03-04T08:13:13.919Z,96124.86
2018-03-04T08:14:19.175Z,96135.14
2018-03-04T08:15:24.597Z,96122.94
2018-03-04T08:16:30.927Z,96120.65
2018-03-04T08:17:36.659Z,96121.23
2018-03-04T08:18:42.502Z,96124.57
2018-03-04T08:19:48.165Z,96121.37
2018-03-04T08:20:53.664Z,96125.92
2018-03-04T08:21:58.976Z,96124.94
2018-03-04T08:23:04.328Z,96120.53
2018-03-04T08:24:09.734Z,96113.44
2018-03-04T08:25:20.093Z,96112.85
2018-03-04T08:28:35.463Z,96108.44
2018-03-04T08:29:40.751Z,96108.58
2018-03-04T08:30:46.599Z,96113.61
2018-03-04T08:31:51.857Z,96109.73
2018-03-04T08:32:57.171Z,96112.57
2018-03-04T08:34:02.622Z,96123.81
2018-03-04T08:35:08.453Z,96124.35
2018-03-04T08:36:14.864Z,96131.88
2018-03-04T08:37:20.445Z,96132.57
2018-03-04T08:38:25.634Z,96132.72
2018-03-04T08:39:30.839Z,96133.52
2018-03-04T08:40:35.971Z,96134.34
2018-03-04T08:41:41.252Z,96134.14
2018-03-04T08:42:46.377Z,96125.30
2018-03-04T08:43:51.769Z,96134.23
2018-03-04T08:44:57.191Z,96133.19
2018-03-04T08:46:02.439Z,96137.08
2018-03-04T08:47:08.395Z,96140.86
2018-03-04T08:48:13.711Z,96143.19
2018-03-04T08:49:19.206Z,96142.20
2018-03-04T08:50:24.766Z,96139.55
2018-03-04T08:51:30.064Z,96144.61
2018-03-04T08:52:35.433Z,96149.19
2018-03-04T08:53:41.066Z,96149.41
2018-03-04T08:54:46.426Z,96150.42
2018-03-04T08:55:51.840Z,96152.68
2018-03-04T08:56:57.146Z,96156.46
2018-03-04T08:58:02.550Z,96161.12
2018-03-04T08:59:10.656Z,96165.05
2018-03-04T09:00:15.854Z,96168.32
2018-03-04T09:01:21.047Z,96162.39
2018-03-04T09:02:26.620Z,96157.77
2018-03-04T09:03:31.794Z,96158.06
2018-03-04T09:04:36.946Z,96161.16
2018-03-04T09:05:42.243Z,96159.16
2018-03-04T09:06:47.432Z,96151.27
2018-03-04T09:07:53.082Z,96150.58
2018-03-04T09:08:58.603Z,96154.06
2018-03-04T09:10:03.907Z,96150.28
2018-03-04T09:11:09.281Z,96151.73
2018-03-04T09:12:15.031Z,96151.81
2018-03-04T09:13:20.418Z,96151.66
2018-03-04T09:14:25.662Z,96137.19
2018-03-04T09:15:32.322Z,96131.36
2018-03-04T09:16:37.557Z,96146.78
2018-03-04T09:17:42.859Z,96146.67
2018-03-04T09:18:48.145Z,96147.89
2018-03-04T09:19:53.168Z,96152.58
2018-03-04T09:20:58.530Z,96148.47
2018-03-04T09:22:04.166Z,96152.98
2018-03-04T09:23:09.429Z,96149.77
2018-03-04T09:24:14.750Z,96157.78
2018-03-04T09:25:19.880Z,96158.80
2018-03-04T09:26:25.082Z,96161.20
2018-03-04T09:27:30.609Z,96152.64
2018-03-04T09:28:35.805Z,96156.84
2018-03-04T09:29:42.174Z,96148.33
2018-03-04T09:30:47.430Z,96152.78
2018-03-04T09:31:52.606Z,96152.14
2018-03-04T09:32:57.896Z,96151.09
2018-03-04T09:34:03.474Z,96151.30
2018-03-04T09:35:08.791Z,96150.27
2018-03-04T09:36:14.154Z,96152.49
2018-03-04T09:37:19.375Z,96150.73
2018-03-04T09:38:24.613Z,96152.37
2018-03-04T09:39:29.941Z,96152.05
2018-03-04T09:40:35.463Z,96141.16
2018-03-04T09:41:40.815Z,96144.15
2018-03-04T09:42:46.057Z,96138.16
2018-03-04T09:43:51.245Z,96137.73
2018-03-04T09:44:56.669Z,96138.84
2018-03-04T09:46:01.819Z,96144.65
2018-03-04T09:47:07.303Z,96145.56
2018-03-04T09:48:12.542Z,96137.91
2018-03-04T09:49:17.788Z,96144.13
2018-03-04T09:50:23.076Z,96143.53
2018-03-04T09:51:28.377Z,96139.49
2018-03-04T09:52:33.882Z,96134.37
2018-03-04T09:53:39.692Z,96135.50
2018-03-04T09:54:45.408Z,96135.41
2018-03-04T09:55:51.096Z,96129.37
2018-03-04T09:56:56.239Z,96135.81
2018-03-04T09:58:02.228Z,96138.93
2018-03-04T09:59:07.364Z,96138.77
2018-03-04T10:00:12.951Z,96137.29
2018-03-04T10:01:18.236Z,96142.13
2018-03-04T10:02:23.729Z,96132.61
2018-03-04T10:03:29.853Z,96121.91
2018-03-04T10:04:34.996Z,96126.67
2018-03-04T10:05:40.179Z,96120.56
2018-03-04T10:06:45.296Z,96121.16
2018-03-04T10:07:50.417Z,96128.51
2018-03-04T10:08:55.731Z,96126.34
2018-03-04T10:10:01.755Z,96121.23
2018-03-04T10:11:06.984Z,96122.95
2018-03-04T10:12:12.448Z,96129.45
2018-03-04T10:13:17.672Z,96122.01
2018-03-04T10:14:23.048Z,96116.58
2018-03-04T10:15:28.317Z,96123.39
2018-03-04T10:16:33.631Z,96119.16
2018-03-04T10:17:39.221Z,96121.20
2018-03-04T10:18:44.361Z,96116.96
2018-03-04T10:19:49.888Z,96126.93
2018-03-04T10:20:55.038Z,96120.21
2018-03-04T10:22:00.237Z,96118.72
2018-03-04T10:23:05.499Z,96117.59
2018-03-04T10:24:10.890Z,96113.89
2018-03-04T10:25:16.048Z,96110.81
2018-03-04T10:26:21.196Z,96110.34
2018-03-04T10:27:26.711Z,96113.71
2018-03-04T10:28:32.080Z,96112.38
2018-03-04T10:29:37.410Z,96109.32
2018-03-04T10:30:43.572Z,96111.03
2018-03-04T10:31:48.827Z,96107.65
2018-03-04T10:32:53.958Z,96105.30
2018-03-04T10:33:59.126Z,96103.51
2018-03-04T10:35:04.246Z,96100.58
2018-03-04T10:36:09.684Z,96100.53
2018-03-04T10:37:15.630Z,96091.17
2018-03-04T10:38:20.669Z,96104.63
2018-03-04T10:39:25.752Z,96097.17
2018-03-04T10:40:30.883Z,96092.56
2018-03-04T10:41:36.081Z,96093.13
2018-03-04T10:42:41.248Z,96094.94
2018-03-04T10:43:47.149Z,96099.55
2018-03-04T10:44:52.280Z,96101.34
2018-03-04T10:45:58.024Z,96109.72
2018-03-04T10:47:03.169Z,96102.52
2018-03-04T10:48:08.346Z,96105.55
2018-03-04T10:49:13.352Z,96101.80
2018-03-04T10:50:18.758Z,96102.76
2018-03-04T10:51:23.667Z,96094.60
2018-03-04T10:52:28.649Z,96103.86
2018-03-04T10:53:33.847Z,96105.67
2018-03-04T10:54:38.900Z,96107.80
2018-03-04T10:55:43.998Z,96104.33
2018-03-04T10:56:49.382Z,96101.24
2018-03-04T10:57:54.528Z,96097.48
2018-03-04T10:58:59.678Z,96099.23
2018-03-04T11:00:04.913Z,96098.03
2018-03-04T11:01:11.308Z,96096.41
2018-03-04T11:02:18.369Z,96102.72
2018-03-04T11:03:23.525Z,96112.28
2018-03-04T11:04:28.769Z,96101.45
2018-03-04T11:05:33.981Z,96097.89
2018-03-04T11:06:39.589Z,96097.08
2018-03-04T11:07:44.727Z,96094.54
2018-03-04T11:08:50.361Z,96089.61
2018-03-04T11:09:55.659Z,96094.95
2018-03-04T11:11:01.658Z,96088.70
2018-03-04T11:12:06.791Z,96092.73
2018-03-04T11:13:12.185Z,96095.20
2018-03-04T11:14:17.545Z,96096.19
2018-03-04T11:15:23.130Z,96089.83
2018-03-04T11:16:28.357Z,96089.54
2018-03-04T11:17:33.528Z,96091.09
2018-03-04T11:18:38.622Z,96087.81
2018-03-04T11:19:43.832Z,96088.81
2018-03-04T11:20:49.028Z,96082.11
2018-03-04T11:21:54.613Z,96083.92
2018-03-04T11:22:59.831Z,96087.36
2018-03-04T11:24:05.063Z,96078.67
2018-03-04T11:25:10.260Z,96080.36
2018-03-04T11:26:15.470Z,96084.86
2018-03-04T11:27:20.799Z,96080.29
2018-03-04T11:28:26.522Z,96084.37
2018-03-04T11:29:32.085Z,96079.17
2018-03-04T11:30:38.209Z,96083.37
2018-03-04T11:31:43.492Z,96084.38
2018-03-04T11:32:48.854Z,96083.25
2018-03-04T11:33:54.647Z,96079.34
2018-03-04T11:35:01.576Z,96082.11
2018-03-04T11:36:06.931Z,96081.94
2018-03-04T11:37:12.620Z,96081.05
2018-03-04T11:38:18.553Z,96086.06
2018-03-04T11:39:24.807Z,96079.27
2018-03-04T11:40:31.429Z,96072.88
2018-03-04T11:41:37.587Z,96075.37
2018-03-04T11:42:44.719Z,96084.36
2018-03-04T11:43:53.217Z,96073.55
2018-03-04T11:45:00.805Z,96078.09
2018-03-04T11:46:08.358Z,96083.84
2018-03-04T11:47:15.202Z,96076.74
2018-03-04T11:48:21.029Z,96080.28
2018-03-04T11:49:26.265Z,96075.72
2018-03-04T11:50:32.208Z,96073.53
2018-03-04T11:51:37.647Z,96074.63
2018-03-04T11:52:43.222Z,96066.05
2018-03-04T11:53:48.586Z,96069.11
2018-03-04T11:54:54.433Z,96070.54
2018-03-04T11:55:59.719Z,96083.95
2018-03-04T11:57:05.326Z,96064.46
2018-03-04T11:58:10.892Z,96074.84
2018-03-04T11:59:16.278Z,96070.74
2018-03-04T12:00:22.842Z,96070.88
2018-03-04T12:01:28.786Z,96066.34
2018-03-04T12:02:34.955Z,96065.41
2018-03-04T12:03:40.425Z,96064.33
2018-03-04T12:04:45.756Z,96074.84
2018-03-04T12:05:52.282Z,96068.80
2018-03-04T12:06:58.182Z,96063.80
2018-03-04T12:08:03.975Z,96076.23
2018-03-04T12:09:09.555Z,96072.98
2018-03-04T12:10:14.715Z,96068.45
2018-03-04T12:11:20.324Z,96067.08
2018-03-04T12:12:25.489Z,96071.11
2018-03-04T12:13:30.941Z,96063.66
2018-03-04T12:14:36.915Z,96067.93
2018-03-04T12:15:42.517Z,96064.63
2018-03-04T12:16:49.084Z,96051.44
2018-03-04T12:17:54.171Z,96062.66
2018-03-04T12:18:59.730Z,96052.16
2018-03-04T12:20:05.164Z,96054.39
2018-03-04T12:21:10.340Z,96048.38
2018-03-04T12:22:15.912Z,96049.72
2018-03-04T12:23:21.417Z,96041.58
2018-03-04T12:24:26.684Z,96049.55
2018-03-04T12:25:32.142Z,96039.02
2018-03-04T12:26:38.023Z,96046.63
2018-03-04T12:27:43.285Z,96044.40
2018-03-04T12:28:48.424Z,96034.77
2018-03-04T12:29:54.615Z,96037.69
2018-03-04T12:31:00.801Z,96035.48
2018-03-04T12:32:06.986Z,96036.58
2018-03-04T12:33:12.872Z,96023.92
2018-03-04T12:34:18.724Z,96027.96
2018-03-04T12:35:26.263Z,96033.27
2018-03-04T12:36:34.533Z,96029.23
2018-03-04T12:37:40.020Z,96021.45
2018-03-04T12:38:46.276Z,96025.32
2018-03-04T12:39:53.464Z,96029.25
2018-03-04T12:40:58.718Z,96023.85
2018-03-04T12:42:03.966Z,96031.63
2018-03-04T12:43:10.917Z,96028.59
2018-03-04T12:44:16.384Z,96023.52
2018-03-04T12:45:21.824Z,96027.23
2018-03-04T12:46:27.817Z,96027.48
2018-03-04T12:47:33.711Z,96021.48
2018-03-04T12:48:39.602Z,96027.49
2018-03-04T12:49:44.934Z,96024.78
2018-03-04T12:50:50.428Z,96026.83
2018-03-04T12:51:56.474Z,96021.34
2018-03-04T12:53:01.831Z,96024.16
2018-03-04T12:54:07.375Z,96022.26
2018-03-04T12:55:13.111Z,96009.78
2018-03-04T12:56:18.589Z,96003.14
2018-03-04T12:57:24.292Z,96005.31
2018-03-04T12:58:31.409Z,96022.84